Time;durP1;ratioP1;P1;durP2;ratioP2;P2;SDS_P1;SDS_P2;PMS_P1;PMS_P2;Temp;Humidity;BMP_temperature;BMP_pressure;BME280_temperature;BME280_humidity;BME280_pressure;Samples;Min_cycle;Max_cycle;Signal;HPM_P1;HPM_P2
2021/01/21 00:01:26;;;;;;;0.83;0.73;;;;;;;;;;5053873;28;20544;-65
2021/01/21 00:03:52;;;;;;;2.40;1.47;;;;;;;;;;5053724;28;20402;-64
2021/01/21 00:06:18;;;;;;;0.60;0.60;;;;;;;;;;5053655;28;20772;-65
2021/01/21 00:08:44;;;;;;;0.50;0.50;;;;;;;;;;5053399;28;20570;-64
2021/01/21 00:11:10;;;;;;;0.73;0.73;;;;;;;;;;5053622;28;20175;-64
2021/01/21 00:13:36;;;;;;;1.33;1.33;;;;;;;;;;5053649;28;20627;-64
2021/01/21 00:16:02;;;;;;;0.97;0.90;;;;;;;;;;5053514;28;20191;-64
2021/01/21 00:18:28;;;;;;;0.70;0.70;;;;;;;;;;5053155;28;20463;-64
2021/01/21 00:20:54;;;;;;;1.00;1.00;;;;;;;;;;5053295;28;20408;-64
2021/01/21 00:23:20;;;;;;;2.30;2.13;;;;;;;;;;5053498;28;20799;-64
2021/01/21 00:25:47;;;;;;;1.10;1.10;;;;;;;;;;5053409;28;20176;-64
2021/01/21 00:28:13;;;;;;;0.50;0.50;;;;;;;;;;5053214;28;20547;-64
2021/01/21 00:30:39;;;;;;;2.25;0.88;;;;;;;;;;5051815;28;20236;-64
2021/01/21 00:33:05;;;;;;;0.83;0.83;;;;;;;;;;5053212;28;20186;-64
2021/01/21 00:35:31;;;;;;;1.23;1.13;;;;;;;;;;5053123;28;20793;-64
2021/01/21 00:37:57;;;;;;;0.60;0.60;;;;;;;;;;5053290;28;20219;-64
2021/01/21 00:40:23;;;;;;;1.08;1.08;;;;;;;;;;5052849;28;20193;-64
2021/01/21 00:42:49;;;;;;;1.35;0.82;;;;;;;;;;5053071;28;20196;-64
2021/01/21 00:45:15;;;;;;;0.73;0.73;;;;;;;;;;5052996;28;20200;-64
2021/01/21 00:47:41;;;;;;;0.52;0.52;;;;;;;;;;5052683;28;20471;-64
2021/01/21 00:50:07;;;;;;;0.50;0.50;;;;;;;;;;5052635;28;20230;-64
2021/01/21 00:52:33;;;;;;;0.47;0.47;;;;;;;;;;5052858;28;20444;-64
2021/01/21 00:54:59;;;;;;;2.10;2.00;;;;;;;;;;5052889;28;20191;-64
2021/01/21 00:57:25;;;;;;;0.57;0.57;;;;;;;;;;5052782;28;20454;-64
2021/01/21 00:59:51;;;;;;;1.13;1.10;;;;;;;;;;5052567;28;20459;-64
2021/01/21 01:02:17;;;;;;;0.60;0.60;;;;;;;;;;5052615;28;20460;-64
2021/01/21 01:04:43;;;;;;;1.48;1.35;;;;;;;;;;5052615;28;20171;-64
2021/01/21 01:07:09;;;;;;;0.60;0.60;;;;;;;;;;5052558;28;20178;-64
2021/01/21 01:09:35;;;;;;;0.60;0.60;;;;;;;;;;5052376;28;20540;-64
2021/01/21 01:12:01;;;;;;;1.45;1.10;;;;;;;;;;5052502;28;20405;-65
2021/01/21 01:14:27;;;;;;;0.60;0.60;;;;;;;;;;5052455;28;20209;-65
2021/01/21 01:16:53;;;;;;;0.57;0.57;;;;;;;;;;5052432;28;20296;-65
2021/01/21 01:19:19;;;;;;;1.40;0.60;;;;;;;;;;5051904;28;20543;-64
2021/01/21 01:21:45;;;;;;;0.50;0.50;;;;;;;;;;5052359;28;20178;-64
2021/01/21 01:24:11;;;;;;;1.73;0.82;;;;;;;;;;5052421;28;20590;-64
2021/01/21 01:26:37;;;;;;;0.88;0.88;;;;;;;;;;5052296;28;20223;-65
2021/01/21 01:29:03;;;;;;;1.80;1.70;;;;;;;;;;5051992;28;20208;-65
2021/01/21 01:31:29;;;;;;;0.70;0.70;;;;;;;;;;5052163;28;20203;-64
2021/01/21 01:33:55;;;;;;;0.65;0.65;;;;;;;;;;5052105;28;20203;-64
2021/01/21 01:36:22;;;;;;;0.57;0.57;;;;;;;;;;5051952;28;20207;-64
2021/01/21 01:38:48;;;;;;;2.35;0.63;;;;;;;;;;5051844;28;20218;-63
2021/01/21 01:41:14;;;;;;;1.40;1.40;;;;;;;;;;5051919;28;20233;-65
2021/01/21 01:43:40;;;;;;;0.82;0.82;;;;;;;;;;5051900;28;20420;-64
2021/01/21 01:46:07;;;;;;;0.73;0.73;;;;;;;;;;5051868;28;20189;-65
2021/01/21 01:48:33;;;;;;;2.45;0.80;;;;;;;;;;5051676;28;20191;-64
2021/01/21 01:51:00;;;;;;;0.95;0.88;;;;;;;;;;5051695;28;20175;-64
2021/01/21 01:53:28;;;;;;;0.70;0.70;;;;;;;;;;5051814;28;20178;-65
2021/01/21 01:55:55;;;;;;;0.60;0.60;;;;;;;;;;5051689;28;20195;-64
2021/01/21 01:58:21;;;;;;;0.68;0.68;;;;;;;;;;5051166;28;20669;-64
2021/01/21 02:00:48;;;;;;;0.50;0.50;;;;;;;;;;5051525;28;20207;-65
2021/01/21 02:03:14;;;;;;;1.20;1.02;;;;;;;;;;5051606;28;20182;-65
2021/01/21 02:05:40;;;;;;;0.60;0.60;;;;;;;;;;5051679;28;20651;-64
2021/01/21 02:08:07;;;;;;;0.73;0.73;;;;;;;;;;5051563;28;20409;-65
2021/01/21 02:10:33;;;;;;;1.00;1.00;;;;;;;;;;5051313;28;20238;-64
2021/01/21 02:12:59;;;;;;;0.50;0.50;;;;;;;;;;5049878;28;20187;-64
2021/01/21 02:15:29;;;;;;;0.50;0.50;;;;;;;;;;5051382;28;20581;-64
2021/01/21 02:18:01;;;;;;;0.40;0.40;;;;;;;;;;5051714;28;20412;-64
2021/01/21 02:20:30;;;;;;;0.70;0.70;;;;;;;;;;5051125;28;20625;-64
2021/01/21 02:23:22;;;;;;;0.98;0.98;;;;;;;;;;5051511;28;20171;-64
2021/01/21 02:25:52;;;;;;;0.50;0.50;;;;;;;;;;5028138;28;20241;-64
2021/01/21 02:28:28;;;;;;;0.80;0.80;;;;;;;;;;5051413;28;20184;-64
2021/01/21 02:30:59;;;;;;;4.15;1.95;;;;;;;;;;5051180;28;20175;-65
2021/01/21 02:33:40;;;;;;;1.08;0.98;;;;;;;;;;5051413;28;20175;-64
2021/01/21 02:36:08;;;;;;;0.68;0.68;;;;;;;;;;5051295;28;20242;-64
2021/01/21 02:38:35;;;;;;;0.60;0.60;;;;;;;;;;5051606;28;20600;-64
2021/01/21 02:41:02;;;;;;;0.50;0.50;;;;;;;;;;5051165;28;20228;-64
2021/01/21 02:43:28;;;;;;;2.28;1.45;;;;;;;;;;5051350;28;20571;-64
2021/01/21 02:45:54;;;;;;;0.65;0.65;;;;;;;;;;5051293;28;20213;-65
2021/01/21 02:48:20;;;;;;;0.77;0.77;;;;;;;;;;5051153;28;20181;-64
2021/01/21 02:50:46;;;;;;;1.25;1.15;;;;;;;;;;5050888;28;20413;-65
2021/01/21 02:53:12;;;;;;;0.50;0.50;;;;;;;;;;5051210;28;20218;-64
2021/01/21 02:55:54;;;;;;;0.80;0.80;;;;;;;;;;5051149;28;20213;-64
2021/01/21 02:58:38;;;;;;;0.60;0.60;;;;;;;;;;5051073;28;20711;-64
2021/01/21 03:01:05;;;;;;;0.52;0.52;;;;;;;;;;5050891;28;20217;-64
2021/01/21 03:03:32;;;;;;;1.40;0.80;;;;;;;;;;5051092;28;20185;-64
2021/01/21 03:06:00;;;;;;;0.82;0.82;;;;;;;;;;5051109;28;20290;-64
2021/01/21 03:08:29;;;;;;;0.60;0.60;;;;;;;;;;5050955;28;20200;-64
2021/01/21 03:11:14;;;;;;;0.70;0.70;;;;;;;;;;5054344;28;20199;-65
2021/01/21 03:13:44;;;;;;;0.63;0.63;;;;;;;;;;5054700;28;20812;-64
2021/01/21 03:16:10;;;;;;;0.50;0.50;;;;;;;;;;5054646;28;20238;-64
2021/01/21 03:18:36;;;;;;;1.40;0.93;;;;;;;;;;5054404;28;20211;-64
2021/01/21 03:21:02;;;;;;;0.50;0.50;;;;;;;;;;5054525;28;20602;-64
2021/01/21 03:23:28;;;;;;;0.40;0.40;;;;;;;;;;5053311;28;20218;-64
2021/01/21 03:25:54;;;;;;;0.40;0.40;;;;;;;;;;5054604;28;20661;-64
2021/01/21 03:28:20;;;;;;;0.52;0.52;;;;;;;;;;5054231;28;20418;-64
2021/01/21 03:30:46;;;;;;;0.40;0.40;;;;;;;;;;5054335;28;20171;-65
2021/01/21 03:33:12;;;;;;;0.50;0.50;;;;;;;;;;5054374;28;20413;-64
2021/01/21 03:35:38;;;;;;;1.30;1.30;;;;;;;;;;5054334;28;20670;-64
2021/01/21 03:38:04;;;;;;;0.60;0.60;;;;;;;;;;5054344;28;20711;-65
2021/01/21 03:40:30;;;;;;;0.70;0.70;;;;;;;;;;5053998;28;20887;-64
2021/01/21 03:42:56;;;;;;;0.60;0.60;;;;;;;;;;5054117;28;20207;-65
2021/01/21 03:45:22;;;;;;;1.20;0.68;;;;;;;;;;5054173;28;20429;-64
2021/01/21 03:47:48;;;;;;;0.70;0.70;;;;;;;;;;5054122;28;20317;-64
2021/01/21 03:50:14;;;;;;;0.63;0.63;;;;;;;;;;5053820;28;20313;-64
2021/01/21 03:52:40;;;;;;;0.50;0.50;;;;;;;;;;5054044;28;20406;-64
2021/01/21 03:55:06;;;;;;;0.70;0.70;;;;;;;;;;5053990;28;20167;-65
2021/01/21 03:57:32;;;;;;;0.50;0.50;;;;;;;;;;5053714;28;20458;-64
2021/01/21 03:59:58;;;;;;;0.60;0.60;;;;;;;;;;5053821;28;20196;-64
2021/01/21 04:02:24;;;;;;;1.23;1.13;;;;;;;;;;5053828;28;20405;-65
2021/01/21 04:04:50;;;;;;;0.80;0.80;;;;;;;;;;5053883;28;20408;-64
2021/01/21 04:07:16;;;;;;;0.50;0.50;;;;;;;;;;5053717;28;20528;-64
2021/01/21 04:09:42;;;;;;;0.50;0.50;;;;;;;;;;5053378;28;20419;-65
2021/01/21 04:12:08;;;;;;;0.60;0.60;;;;;;;;;;5053633;28;20180;-64
2021/01/21 04:14:34;;;;;;;0.40;0.40;;;;;;;;;;5053649;28;20179;-65
2021/01/21 04:17:00;;;;;;;0.97;0.97;;;;;;;;;;5053634;28;20276;-64
2021/01/21 04:19:26;;;;;;;0.50;0.50;;;;;;;;;;5071805;22;20499;-65
2021/01/21 04:21:52;;;;;;;0.83;0.83;;;;;;;;;;5072895;28;20407;-65
2021/01/21 04:24:18;;;;;;;0.60;0.60;;;;;;;;;;5073460;28;20394;-65
2021/01/21 04:26:44;;;;;;;0.60;0.60;;;;;;;;;;5073325;28;20432;-65
2021/01/21 04:29:10;;;;;;;0.80;0.80;;;;;;;;;;5073007;28;20457;-65
2021/01/21 04:31:36;;;;;;;0.73;0.67;;;;;;;;;;5071887;28;20241;-65
2021/01/21 04:34:02;;;;;;;0.50;0.50;;;;;;;;;;5073282;28;20439;-65
2021/01/21 04:36:28;;;;;;;0.50;0.50;;;;;;;;;;5073031;28;20234;-65
2021/01/21 04:38:54;;;;;;;0.60;0.60;;;;;;;;;;5072773;28;20220;-65
2021/01/21 04:41:20;;;;;;;0.75;0.75;;;;;;;;;;5073072;28;20214;-65
2021/01/21 04:43:46;;;;;;;0.82;0.82;;;;;;;;;;5073059;28;20567;-65
2021/01/21 04:46:13;;;;;;;0.50;0.50;;;;;;;;;;5072918;28;20235;-65
2021/01/21 04:48:42;;;;;;;0.77;0.77;;;;;;;;;;5072890;28;20456;-65
2021/01/21 04:51:09;;;;;;;0.60;0.60;;;;;;;;;;5072796;28;20231;-65
2021/01/21 04:53:38;;;;;;;0.50;0.50;;;;;;;;;;5072861;28;20163;-65
2021/01/21 04:56:05;;;;;;;0.43;0.43;;;;;;;;;;5072715;28;20220;-65
2021/01/21 04:58:32;;;;;;;0.50;0.50;;;;;;;;;;5072544;28;20187;-64
2021/01/21 05:00:59;;;;;;;0.50;0.50;;;;;;;;;;5072420;28;20634;-64
2021/01/21 05:03:25;;;;;;;0.43;0.43;;;;;;;;;;5072859;28;20637;-64
2021/01/21 05:05:51;;;;;;;0.70;0.70;;;;;;;;;;5068193;28;20175;-65
2021/01/21 05:08:18;;;;;;;0.60;0.60;;;;;;;;;;5062091;28;20179;-65
2021/01/21 05:10:45;;;;;;;0.40;0.40;;;;;;;;;;5050869;28;20235;-65
2021/01/21 05:13:11;;;;;;;0.82;0.82;;;;;;;;;;5069430;28;20171;-65
2021/01/21 05:15:37;;;;;;;0.50;0.50;;;;;;;;;;5072326;28;20603;-65
2021/01/21 05:18:03;;;;;;;0.50;0.50;;;;;;;;;;5072399;28;20207;-65
2021/01/21 05:20:29;;;;;;;0.50;0.50;;;;;;;;;;5071963;28;20444;-65
2021/01/21 05:22:59;;;;;;;0.40;0.40;;;;;;;;;;5072275;28;20171;-65
2021/01/21 05:25:25;;;;;;;0.50;0.50;;;;;;;;;;5071590;28;20167;-65
2021/01/21 05:27:52;;;;;;;0.75;0.75;;;;;;;;;;5052184;28;20856;-65
2021/01/21 05:30:19;;;;;;;0.60;0.60;;;;;;;;;;5055322;28;20260;-65
2021/01/21 05:32:45;;;;;;;0.45;0.45;;;;;;;;;;5059544;28;20204;-65
2021/01/21 05:35:14;;;;;;;0.60;0.57;;;;;;;;;;5052117;28;20168;-65
2021/01/21 05:37:40;;;;;;;0.50;0.50;;;;;;;;;;5070591;28;20300;-65
2021/01/21 05:40:07;;;;;;;0.60;0.60;;;;;;;;;;5071576;28;20198;-65
2021/01/21 05:42:39;;;;;;;1.80;0.80;;;;;;;;;;5071918;28;20247;-65
2021/01/21 05:45:06;;;;;;;0.50;0.50;;;;;;;;;;5071900;28;20172;-65
2021/01/21 05:47:32;;;;;;;0.50;0.50;;;;;;;;;;5069219;28;20210;-65
2021/01/21 05:49:58;;;;;;;0.40;0.40;;;;;;;;;;5051487;28;20191;-65
2021/01/21 05:52:25;;;;;;;0.50;0.50;;;;;;;;;;5052036;28;20642;-65
2021/01/21 05:54:52;;;;;;;0.50;0.50;;;;;;;;;;5071676;28;20189;-65
2021/01/21 05:57:18;;;;;;;0.50;0.50;;;;;;;;;;5070338;28;20240;-65
2021/01/21 05:59:44;;;;;;;3.05;0.88;;;;;;;;;;5071342;28;20666;-65
2021/01/21 06:02:10;;;;;;;0.68;0.68;;;;;;;;;;5053207;28;20207;-65
2021/01/21 06:04:37;;;;;;;0.40;0.40;;;;;;;;;;5052660;28;20244;-65
2021/01/21 06:07:04;;;;;;;0.43;0.43;;;;;;;;;;5062551;28;20219;-65
2021/01/21 06:09:31;;;;;;;0.50;0.50;;;;;;;;;;5049791;28;20198;-65
2021/01/21 06:11:58;;;;;;;0.50;0.50;;;;;;;;;;5051432;28;20176;-65
2021/01/21 06:14:24;;;;;;;0.60;0.60;;;;;;;;;;5051466;28;20176;-64
2021/01/21 06:16:51;;;;;;;1.13;1.02;;;;;;;;;;5051547;28;20194;-65
2021/01/21 06:19:17;;;;;;;0.60;0.60;;;;;;;;;;5051050;28;20246;-65
2021/01/21 06:21:47;;;;;;;0.70;0.70;;;;;;;;;;5050174;28;20182;-65
2021/01/21 06:24:16;;;;;;;1.25;0.63;;;;;;;;;;5051522;28;20292;-65
2021/01/21 06:26:43;;;;;;;0.50;0.50;;;;;;;;;;5051431;28;20339;-65
2021/01/21 06:29:11;;;;;;;0.50;0.50;;;;;;;;;;5051085;28;20200;-65
2021/01/21 06:31:38;;;;;;;0.40;0.40;;;;;;;;;;5051386;28;20194;-65
2021/01/21 06:34:05;;;;;;;0.77;0.55;;;;;;;;;;5051553;28;20175;-64
2021/01/21 06:36:33;;;;;;;0.60;0.60;;;;;;;;;;5051296;28;20621;-65
2021/01/21 06:39:00;;;;;;;1.52;0.65;;;;;;;;;;5050890;28;20175;-65
2021/01/21 06:41:29;;;;;;;0.40;0.40;;;;;;;;;;5051708;28;20187;-65
2021/01/21 06:43:55;;;;;;;0.73;0.70;;;;;;;;;;5051615;28;20684;-65
2021/01/21 06:46:21;;;;;;;0.52;0.52;;;;;;;;;;5055407;28;20183;-65
2021/01/21 06:48:50;;;;;;;0.60;0.60;;;;;;;;;;5054959;28;20698;-65
2021/01/21 06:51:17;;;;;;;0.50;0.50;;;;;;;;;;5055219;28;20179;-65
2021/01/21 06:53:44;;;;;;;0.50;0.50;;;;;;;;;;5055246;28;20183;-65
2021/01/21 06:56:10;;;;;;;0.40;0.40;;;;;;;;;;5055297;28;20199;-65
2021/01/21 06:58:46;;;;;;;0.60;0.60;;;;;;;;;;5055247;28;20237;-65
2021/01/21 07:01:30;;;;;;;0.40;0.40;;;;;;;;;;5063261;28;20216;-65
2021/01/21 07:03:56;;;;;;;0.68;0.68;;;;;;;;;;5064421;28;20258;-65
2021/01/21 07:06:22;;;;;;;0.50;0.50;;;;;;;;;;5068590;28;20565;-65
2021/01/21 07:09:09;;;;;;;1.58;1.20;;;;;;;;;;5071271;28;20179;-65
2021/01/21 07:11:35;;;;;;;0.50;0.50;;;;;;;;;;5075705;28;20554;-64
2021/01/21 07:14:01;;;;;;;0.40;0.40;;;;;;;;;;5056364;28;20289;-64
2021/01/21 07:16:29;;;;;;;0.50;0.50;;;;;;;;;;5068927;28;20243;-64
2021/01/21 07:18:56;;;;;;;0.50;0.50;;;;;;;;;;5068713;28;20204;-64
2021/01/21 07:21:25;;;;;;;0.45;0.45;;;;;;;;;;5054653;28;20351;-64
2021/01/21 07:23:55;;;;;;;0.50;0.50;;;;;;;;;;5069914;28;20171;-64
2021/01/21 07:26:26;;;;;;;0.50;0.50;;;;;;;;;;5071742;28;20293;-64
2021/01/21 07:28:55;;;;;;;0.55;0.55;;;;;;;;;;5065315;28;20554;-64
2021/01/21 07:31:21;;;;;;;1.02;0.65;;;;;;;;;;5054498;28;20175;-65
2021/01/21 07:33:47;;;;;;;0.43;0.43;;;;;;;;;;5054434;28;20219;-64
2021/01/21 07:36:33;;;;;;;0.40;0.40;;;;;;;;;;5054489;28;20238;-64
2021/01/21 07:38:59;;;;;;;0.52;0.52;;;;;;;;;;5054119;28;20847;-65
2021/01/21 07:41:44;;;;;;;0.40;0.40;;;;;;;;;;5059310;28;20270;-65
2021/01/21 07:44:13;;;;;;;0.40;0.40;;;;;;;;;;5073569;28;20440;-66
2021/01/21 07:46:39;;;;;;;0.60;0.55;;;;;;;;;;5073376;28;20175;-66
2021/01/21 07:49:24;;;;;;;0.63;0.63;;;;;;;;;;5073361;28;20205;-66
2021/01/21 07:52:00;;;;;;;0.40;0.40;;;;;;;;;;5073947;28;20235;-63
2021/01/21 07:54:27;;;;;;;0.45;0.45;;;;;;;;;;5073926;28;20174;-65
2021/01/21 07:56:53;;;;;;;0.47;0.47;;;;;;;;;;5072667;28;20207;-64
2021/01/21 07:59:19;;;;;;;0.75;0.75;;;;;;;;;;5073153;28;20190;-64
2021/01/21 08:01:55;;;;;;;0.50;0.50;;;;;;;;;;5074046;28;20178;-65
2021/01/21 08:04:21;;;;;;;0.90;0.90;;;;;;;;;;5073918;28;20645;-65
2021/01/21 08:06:57;;;;;;;0.50;0.50;;;;;;;;;;5073805;28;20183;-65
2021/01/21 08:09:23;;;;;;;0.50;0.50;;;;;;;;;;5072938;28;20511;-65
2021/01/21 08:11:50;;;;;;;0.55;0.50;;;;;;;;;;5073271;28;20185;-65
2021/01/21 08:14:17;;;;;;;0.80;0.77;;;;;;;;;;5073240;28;20179;-65
2021/01/21 08:16:43;;;;;;;0.77;0.75;;;;;;;;;;5071288;28;20245;-65
2021/01/21 08:19:09;;;;;;;0.60;0.60;;;;;;;;;;5072300;28;20566;-65
2021/01/21 08:21:35;;;;;;;0.50;0.50;;;;;;;;;;5072736;28;20179;-65
2021/01/21 08:24:02;;;;;;;1.95;0.60;;;;;;;;;;5072431;28;20167;-65
2021/01/21 08:26:29;;;;;;;0.40;0.40;;;;;;;;;;5072970;28;20179;-65
2021/01/21 08:28:55;;;;;;;0.60;0.60;;;;;;;;;;5072743;28;20175;-65
2021/01/21 08:31:30;;;;;;;0.40;0.40;;;;;;;;;;5072730;28;20179;-65
2021/01/21 08:33:56;;;;;;;1.17;1.17;;;;;;;;;;5072228;28;20173;-65
2021/01/21 08:36:23;;;;;;;0.40;0.40;;;;;;;;;;5072835;28;20226;-66
2021/01/21 08:38:49;;;;;;;0.40;0.40;;;;;;;;;;5072747;28;20246;-65
2021/01/21 08:41:16;;;;;;;0.50;0.50;;;;;;;;;;5072818;28;20648;-65
2021/01/21 08:43:42;;;;;;;0.65;0.65;;;;;;;;;;5072408;28;20160;-65
2021/01/21 08:46:18;;;;;;;0.40;0.40;;;;;;;;;;5072787;28;20285;-65
2021/01/21 08:48:45;;;;;;;0.50;0.50;;;;;;;;;;5072667;28;20538;-65
2021/01/21 08:51:28;;;;;;;0.40;0.40;;;;;;;;;;5072627;28;20183;-65
2021/01/21 08:53:53;;;;;;;0.50;0.50;;;;;;;;;;5072468;28;20181;-65
2021/01/21 08:56:19;;;;;;;0.50;0.50;;;;;;;;;;5072242;28;20199;-65
2021/01/21 08:58:45;;;;;;;0.40;0.40;;;;;;;;;;5072444;28;20405;-65
2021/01/21 09:01:12;;;;;;;0.47;0.47;;;;;;;;;;5072948;28;20433;-65
2021/01/21 09:03:48;;;;;;;0.60;0.60;;;;;;;;;;5072491;28;20409;-65
2021/01/21 09:06:14;;;;;;;0.60;0.60;;;;;;;;;;5071958;28;20177;-65
2021/01/21 09:08:56;;;;;;;0.50;0.50;;;;;;;;;;5069065;28;20202;-65
2021/01/21 09:11:38;;;;;;;0.50;0.50;;;;;;;;;;5070104;28;20573;-65
2021/01/21 09:14:06;;;;;;;0.55;0.55;;;;;;;;;;5072002;28;20174;-65
2021/01/21 09:16:44;;;;;;;0.60;0.60;;;;;;;;;;5071374;28;20225;-65
2021/01/21 09:19:13;;;;;;;0.40;0.40;;;;;;;;;;5071506;28;20325;-65
2021/01/21 09:21:39;;;;;;;0.60;0.60;;;;;;;;;;5071938;28;20171;-65
2021/01/21 09:24:05;;;;;;;0.40;0.40;;;;;;;;;;5071960;28;20191;-65
2021/01/21 09:26:31;;;;;;;0.50;0.50;;;;;;;;;;5071534;28;20178;-64
2021/01/21 09:28:58;;;;;;;0.40;0.40;;;;;;;;;;5070694;28;20171;-65
2021/01/21 09:31:27;;;;;;;0.65;0.65;;;;;;;;;;5071703;28;20185;-65
2021/01/21 09:33:53;;;;;;;0.40;0.40;;;;;;;;;;5071556;28;20182;-65
2021/01/21 09:36:20;;;;;;;0.60;0.60;;;;;;;;;;5071514;28;20195;-65
2021/01/21 09:38:46;;;;;;;0.50;0.50;;;;;;;;;;5071013;28;20599;-65
2021/01/21 09:41:13;;;;;;;1.02;0.82;;;;;;;;;;5071661;28;20520;-67
2021/01/21 09:43:42;;;;;;;0.40;0.40;;;;;;;;;;5070410;28;20184;-65
2021/01/21 09:46:08;;;;;;;0.82;0.82;;;;;;;;;;5071764;28;20181;-65
2021/01/21 09:48:34;;;;;;;0.40;0.40;;;;;;;;;;5071619;28;20178;-65
2021/01/21 09:51:00;;;;;;;0.60;0.60;;;;;;;;;;5070878;28;20191;-65
2021/01/21 09:53:26;;;;;;;1.17;0.77;;;;;;;;;;5071543;28;20187;-64
2021/01/21 09:55:55;;;;;;;0.50;0.50;;;;;;;;;;5070899;28;20228;-65
2021/01/21 09:58:22;;;;;;;0.50;0.50;;;;;;;;;;5070963;28;20393;-65
2021/01/21 10:00:48;;;;;;;0.60;0.60;;;;;;;;;;5070081;28;20271;-65
2021/01/21 10:03:14;;;;;;;0.70;0.70;;;;;;;;;;5071299;28;20876;-65
2021/01/21 10:05:40;;;;;;;0.55;0.55;;;;;;;;;;5071361;28;20174;-65
2021/01/21 10:08:06;;;;;;;0.50;0.50;;;;;;;;;;5071220;28;20167;-65
2021/01/21 10:10:32;;;;;;;0.70;0.70;;;;;;;;;;5070840;28;20422;-65
2021/01/21 10:12:58;;;;;;;0.57;0.57;;;;;;;;;;5070800;28;20542;-65
2021/01/21 10:15:24;;;;;;;0.40;0.40;;;;;;;;;;5071237;28;20409;-65
2021/01/21 10:17:50;;;;;;;0.60;0.60;;;;;;;;;;5071203;28;20582;-65
2021/01/21 10:20:16;;;;;;;0.50;0.50;;;;;;;;;;5108289;22;20489;-64
2021/01/21 10:22:42;;;;;;;0.40;0.40;;;;;;;;;;5069606;28;20406;-64
2021/01/21 10:25:09;;;;;;;0.55;0.55;;;;;;;;;;5070344;28;20168;-64
2021/01/21 10:27:35;;;;;;;0.40;0.40;;;;;;;;;;5056652;28;20187;-64
2021/01/21 10:30:01;;;;;;;0.50;0.50;;;;;;;;;;5044255;28;20560;-63
2021/01/21 10:32:27;;;;;;;0.70;0.70;;;;;;;;;;5030914;28;20806;-64
2021/01/21 10:34:53;;;;;;;0.60;0.60;;;;;;;;;;5030131;28;20231;-65
2021/01/21 10:37:19;;;;;;;0.50;0.50;;;;;;;;;;5030784;28;20212;-65
2021/01/21 10:39:45;;;;;;;0.40;0.40;;;;;;;;;;5030575;28;20428;-64
2021/01/21 10:42:11;;;;;;;0.55;0.55;;;;;;;;;;5030765;28;20403;-64
2021/01/21 10:44:37;;;;;;;0.53;0.53;;;;;;;;;;5028577;28;20235;-64
2021/01/21 10:47:03;;;;;;;0.43;0.43;;;;;;;;;;5042138;28;20790;-64
2021/01/21 10:49:29;;;;;;;0.70;0.70;;;;;;;;;;5050328;28;20407;-64
2021/01/21 10:51:56;;;;;;;0.40;0.40;;;;;;;;;;5050260;28;20888;-64
2021/01/21 10:54:23;;;;;;;1.27;0.65;;;;;;;;;;5050627;28;20489;-64
2021/01/21 10:56:53;;;;;;;0.50;0.50;;;;;;;;;;5049916;28;20226;-64
2021/01/21 10:59:19;;;;;;;0.40;0.40;;;;;;;;;;5050327;28;20620;-64
2021/01/21 11:01:45;;;;;;;0.40;0.40;;;;;;;;;;5050423;28;20701;-64
2021/01/21 11:04:11;;;;;;;0.60;0.60;;;;;;;;;;5050449;28;20233;-63
2021/01/21 11:06:37;;;;;;;0.50;0.50;;;;;;;;;;5050100;28;20688;-64
2021/01/21 11:09:03;;;;;;;0.70;0.70;;;;;;;;;;5049975;28;20187;-65
2021/01/21 11:11:29;;;;;;;0.45;0.45;;;;;;;;;;5050420;28;20458;-64
2021/01/21 11:13:55;;;;;;;0.83;0.83;;;;;;;;;;5050409;28;20849;-63
2021/01/21 11:16:21;;;;;;;0.40;0.40;;;;;;;;;;5043196;28;20502;-64
2021/01/21 11:18:47;;;;;;;0.45;0.45;;;;;;;;;;5029712;28;20208;-63
2021/01/21 11:21:13;;;;;;;0.50;0.50;;;;;;;;;;5030292;28;20209;-65
2021/01/21 11:23:39;;;;;;;0.50;0.50;;;;;;;;;;5030446;28;20371;-64
2021/01/21 11:26:05;;;;;;;0.50;0.50;;;;;;;;;;5028996;28;20389;-64
2021/01/21 11:28:31;;;;;;;0.57;0.47;;;;;;;;;;5030331;28;20474;-64
2021/01/21 11:30:57;;;;;;;0.50;0.50;;;;;;;;;;5029969;28;20416;-64
2021/01/21 11:33:23;;;;;;;0.40;0.40;;;;;;;;;;5033868;28;20416;-64
2021/01/21 11:35:50;;;;;;;0.67;0.67;;;;;;;;;;5033842;28;20873;-64
2021/01/21 11:38:16;;;;;;;0.50;0.50;;;;;;;;;;5033447;28;20428;-64
2021/01/21 11:40:44;;;;;;;1.87;1.37;;;;;;;;;;5033067;28;20192;-64
2021/01/21 11:43:10;;;;;;;0.80;0.80;;;;;;;;;;5033479;28;20410;-64
2021/01/21 11:45:36;;;;;;;0.50;0.50;;;;;;;;;;5050951;28;20168;-65
2021/01/21 11:48:03;;;;;;;0.40;0.40;;;;;;;;;;5053386;28;20373;-64
2021/01/21 11:50:29;;;;;;;0.40;0.40;;;;;;;;;;5053217;28;20274;-66
2021/01/21 11:52:55;;;;;;;0.70;0.70;;;;;;;;;;5053123;28;20202;-65
2021/01/21 11:55:21;;;;;;;0.90;0.90;;;;;;;;;;5053343;28;20381;-64
2021/01/21 11:57:48;;;;;;;0.77;0.77;;;;;;;;;;5053257;28;20239;-64
2021/01/21 12:00:14;;;;;;;0.40;0.40;;;;;;;;;;5053154;28;20187;-64
2021/01/21 12:02:41;;;;;;;0.70;0.70;;;;;;;;;;5053011;28;20184;-65
2021/01/21 12:05:08;;;;;;;0.70;0.70;;;;;;;;;;5052900;28;20575;-64
2021/01/21 12:07:34;;;;;;;0.63;0.63;;;;;;;;;;5053162;28;20203;-64
2021/01/21 12:10:00;;;;;;;0.50;0.50;;;;;;;;;;5052412;28;20253;-64
2021/01/21 12:12:26;;;;;;;0.70;0.70;;;;;;;;;;5053077;28;20650;-64
2021/01/21 12:14:52;;;;;;;0.60;0.60;;;;;;;;;;5052634;28;20418;-64
2021/01/21 12:17:18;;;;;;;0.47;0.47;;;;;;;;;;5052834;28;20261;-64
2021/01/21 12:19:44;;;;;;;0.73;0.60;;;;;;;;;;5052486;28;20426;-64
2021/01/21 12:22:10;;;;;;;0.52;0.52;;;;;;;;;;5052874;28;20180;-64
2021/01/21 12:24:36;;;;;;;0.50;0.50;;;;;;;;;;5052793;28;20290;-64
2021/01/21 12:27:03;;;;;;;0.63;0.63;;;;;;;;;;5051518;28;20575;-64
2021/01/21 12:29:29;;;;;;;0.40;0.40;;;;;;;;;;5052545;28;20168;-64
2021/01/21 12:31:55;;;;;;;0.90;0.90;;;;;;;;;;5051215;28;20172;-64
2021/01/21 12:34:23;;;;;;;7.75;0.95;;;;;;;;;;5052898;28;20418;-64
2021/01/21 12:36:49;;;;;;;0.43;0.43;;;;;;;;;;5052233;28;20690;-64
2021/01/21 12:39:15;;;;;;;0.60;0.57;;;;;;;;;;5052429;28;20207;-64
2021/01/21 12:41:41;;;;;;;0.40;0.40;;;;;;;;;;5051920;28;20764;-64
2021/01/21 12:44:07;;;;;;;0.67;0.67;;;;;;;;;;5052623;28;20259;-64
2021/01/21 12:46:33;;;;;;;0.40;0.40;;;;;;;;;;5052521;28;20378;-65
2021/01/21 12:48:59;;;;;;;0.40;0.40;;;;;;;;;;5051881;28;20650;-64
2021/01/21 12:51:25;;;;;;;0.60;0.60;;;;;;;;;;5052478;28;20427;-64
2021/01/21 12:53:51;;;;;;;1.40;0.77;;;;;;;;;;5052522;28;20168;-64
2021/01/21 12:56:18;;;;;;;0.50;0.50;;;;;;;;;;5052377;28;20568;-64
2021/01/21 12:58:44;;;;;;;0.50;0.50;;;;;;;;;;5051956;28;20462;-62
2021/01/21 13:01:10;;;;;;;0.50;0.50;;;;;;;;;;5051746;28;20188;-64
2021/01/21 13:03:42;;;;;;;0.50;0.50;;;;;;;;;;5052295;28;20199;-64
2021/01/21 13:06:09;;;;;;;0.50;0.50;;;;;;;;;;5052263;28;20260;-64
2021/01/21 13:08:35;;;;;;;0.40;0.40;;;;;;;;;;5052294;28;20187;-64
2021/01/21 13:11:01;;;;;;;0.50;0.50;;;;;;;;;;5051495;28;20192;-64
2021/01/21 13:13:28;;;;;;;1.30;0.50;;;;;;;;;;5051964;28;20682;-64
2021/01/21 13:15:54;;;;;;;0.40;0.40;;;;;;;;;;5051675;28;20571;-64
2021/01/21 13:18:20;;;;;;;0.60;0.60;;;;;;;;;;5051778;28;20643;-64
2021/01/21 13:20:47;;;;;;;0.90;0.77;;;;;;;;;;5051345;28;20204;-64
2021/01/21 13:23:13;;;;;;;0.50;0.50;;;;;;;;;;5051409;28;20187;-64
2021/01/21 13:25:39;;;;;;;0.40;0.40;;;;;;;;;;5052009;28;20172;-64
2021/01/21 13:28:05;;;;;;;0.60;0.60;;;;;;;;;;5051782;28;20410;-64
2021/01/21 13:30:31;;;;;;;0.50;0.50;;;;;;;;;;5051409;28;20783;-64
2021/01/21 13:32:57;;;;;;;0.40;0.40;;;;;;;;;;5051137;28;20191;-64
2021/01/21 13:35:23;;;;;;;0.57;0.57;;;;;;;;;;5051528;28;20813;-65
2021/01/21 13:37:49;;;;;;;0.67;0.67;;;;;;;;;;5051547;28;20549;-64
2021/01/21 13:40:15;;;;;;;0.60;0.60;;;;;;;;;;5051178;28;20817;-64
2021/01/21 13:42:41;;;;;;;0.93;0.60;;;;;;;;;;5051298;28;20169;-64
2021/01/21 13:45:07;;;;;;;1.17;0.88;;;;;;;;;;5050804;28;20254;-64
2021/01/21 13:47:33;;;;;;;0.70;0.70;;;;;;;;;;5051166;28;20176;-64
2021/01/21 13:49:59;;;;;;;0.40;0.40;;;;;;;;;;5051096;28;20278;-64
2021/01/21 13:52:26;;;;;;;0.77;0.50;;;;;;;;;;5051497;28;20176;-64
2021/01/21 13:54:52;;;;;;;0.40;0.40;;;;;;;;;;5050139;28;20172;-64
2021/01/21 13:57:18;;;;;;;0.60;0.60;;;;;;;;;;5050969;28;20609;-64
2021/01/21 13:59:44;;;;;;;0.50;0.50;;;;;;;;;;5050882;28;20422;-64
2021/01/21 14:02:10;;;;;;;1.13;0.80;;;;;;;;;;5051186;28;20864;-64
2021/01/21 14:04:36;;;;;;;0.50;0.50;;;;;;;;;;5047709;28;20406;-64
2021/01/21 14:07:02;;;;;;;0.90;0.90;;;;;;;;;;5030039;28;20779;-64
2021/01/21 14:09:29;;;;;;;0.40;0.40;;;;;;;;;;5030690;28;20168;-64
2021/01/21 14:11:55;;;;;;;0.52;0.52;;;;;;;;;;5031033;28;20179;-63
2021/01/21 14:14:21;;;;;;;0.40;0.40;;;;;;;;;;5031007;28;20176;-64
2021/01/21 14:16:50;;;;;;;0.70;0.70;;;;;;;;;;5030694;28;20207;-64
2021/01/21 14:19:16;;;;;;;0.40;0.40;;;;;;;;;;5028806;28;20970;-64
2021/01/21 14:21:42;;;;;;;0.70;0.70;;;;;;;;;;5030714;28;20254;-64
2021/01/21 14:24:12;;;;;;;0.40;0.40;;;;;;;;;;5030760;28;20193;-63
2021/01/21 14:26:38;;;;;;;0.50;0.50;;;;;;;;;;5030774;28;20454;-64
2021/01/21 14:29:04;;;;;;;0.50;0.50;;;;;;;;;;5030225;28;20172;-63
2021/01/21 14:31:30;;;;;;;0.60;0.60;;;;;;;;;;5030757;28;20474;-64
2021/01/21 14:33:56;;;;;;;0.60;0.60;;;;;;;;;;5030916;28;20438;-63
2021/01/21 14:36:24;;;;;;;0.70;0.50;;;;;;;;;;5030826;28;20525;-62
2021/01/21 14:38:50;;;;;;;0.60;0.60;;;;;;;;;;5030732;28;20927;-66
2021/01/21 14:41:16;;;;;;;0.40;0.40;;;;;;;;;;5030317;28;20228;-63
2021/01/21 14:43:42;;;;;;;0.60;0.60;;;;;;;;;;5030768;28;20212;-64